Time;durP1;ratioP1;P1;durP2;ratioP2;P2;SDS_P1;SDS_P2;PMS_P1;PMS_P2;Temp;Humidity;BMP_temperature;BMP_pressure;BME280_temperature;BME280_humidity;BME280_pressure;Samples;Min_cycle;Max_cycle;Signal;HPM_P1;HPM_P2
2021/01/20 00:02:02;;;;;;;5.78;4.00;;;1.30;99.90;;;;;;5027901;28;20691;-77
2021/01/20 00:04:28;;;;;;;5.68;3.60;;;1.20;99.90;;;;;;5018450;28;20064;-77
2021/01/20 00:06:54;;;;;;;7.25;4.50;;;1.10;99.90;;;;;;5017271;28;20111;-78
2021/01/20 00:09:19;;;;;;;6.57;4.55;;;1.10;99.90;;;;;;5035157;28;20386;-77
2021/01/20 00:11:45;;;;;;;5.65;4.25;;;1.20;99.90;;;;;;5035193;28;20037;-77
2021/01/20 00:14:18;;;;;;;8.10;3.65;;;1.20;99.90;;;;;;5035001;28;20039;-77
2021/01/20 00:16:44;;;;;;;7.40;4.00;;;1.00;99.90;;;;;;5022313;28;20494;-77
2021/01/20 00:19:10;;;;;;;6.80;4.43;;;0.90;99.90;;;;;;5030117;28;20029;-76
2021/01/20 00:21:36;;;;;;;12.93;4.75;;;0.90;99.90;;;;;;5033060;28;20116;-76
2021/01/20 00:24:03;;;;;;;5.93;4.22;;;0.80;99.90;;;;;;4999142;28;20053;-76
2021/01/20 00:26:28;;;;;;;6.68;3.88;;;0.70;99.90;;;;;;5031399;28;20040;-77
2021/01/20 00:28:54;;;;;;;5.18;3.42;;;0.50;99.90;;;;;;5015348;28;20037;-76
2021/01/20 00:31:20;;;;;;;3.97;3.22;;;0.40;99.90;;;;;;5032850;28;20528;-77
2021/01/20 00:33:46;;;;;;;6.30;3.70;;;0.40;99.90;;;;;;5032025;28;20021;-76
2021/01/20 00:36:12;;;;;;;7.57;4.05;;;0.40;99.90;;;;;;4996455;28;20026;-77
2021/01/20 00:38:37;;;;;;;6.32;3.75;;;0.30;99.90;;;;;;4998610;28;20045;-76
2021/01/20 00:41:03;;;;;;;5.30;3.58;;;0.40;99.90;;;;;;5014871;28;20049;-77
2021/01/20 00:43:29;;;;;;;6.38;3.90;;;0.30;99.90;;;;;;5014653;28;20549;-77
2021/01/20 00:45:56;;;;;;;7.43;4.30;;;0.20;99.90;;;;;;5032410;28;20044;-77
2021/01/20 00:48:22;;;;;;;6.57;4.10;;;0.30;99.90;;;;;;5030945;28;20413;-76
2021/01/20 00:50:51;;;;;;;6.13;4.03;;;0.30;99.90;;;;;;5014588;28;20120;-76
2021/01/20 00:53:18;;;;;;;6.22;3.78;;;0.40;99.90;;;;;;5014407;28;20057;-76
2021/01/20 00:55:44;;;;;;;6.20;3.25;;;0.30;99.90;;;;;;5031736;28;20083;-76
2021/01/20 00:58:09;;;;;;;8.38;4.20;;;0.20;99.90;;;;;;5013265;28;20041;-76
2021/01/20 01:00:35;;;;;;;6.18;3.72;;;0.20;99.90;;;;;;5014424;28;20033;-76
2021/01/20 01:03:01;;;;;;;5.82;3.63;;;0.20;99.90;;;;;;5014510;28;20026;-76
2021/01/20 01:05:29;;;;;;;6.00;3.92;;;0.30;99.90;;;;;;5014466;28;20452;-76
2021/01/20 01:08:00;;;;;;;7.20;4.05;;;0.30;99.90;;;;;;5012564;28;20517;-75
2021/01/20 01:10:26;;;;;;;6.57;3.50;;;0.30;99.90;;;;;;5013857;28;20029;-75
2021/01/20 01:13:08;;;;;;;7.05;3.20;;;0.30;99.90;;;;;;5013969;28;20030;-76
2021/01/20 01:15:39;;;;;;;3.40;2.80;;;0.40;99.90;;;;;;4998388;28;20080;-76
2021/01/20 01:18:05;;;;;;;4.97;2.90;;;0.40;99.90;;;;;;5012713;28;20044;-75
2021/01/20 01:20:31;;;;;;;4.25;2.80;;;0.50;99.90;;;;;;5014150;28;20109;-75
2021/01/20 01:22:58;;;;;;;3.80;2.40;;;0.50;99.90;;;;;;5014013;28;20091;-75
2021/01/20 01:25:25;;;;;;;3.88;2.22;;;0.50;99.90;;;;;;4997379;28;20032;-75
2021/01/20 01:27:51;;;;;;;2.95;1.98;;;0.50;99.90;;;;;;5011962;28;20485;-75
2021/01/20 01:30:19;;;;;;;3.08;1.98;;;0.50;99.90;;;;;;5021064;28;20030;-75
2021/01/20 01:32:45;;;;;;;3.55;2.30;;;0.50;99.90;;;;;;5010216;28;20401;-75
2021/01/20 01:35:16;;;;;;;3.83;2.22;;;0.50;99.90;;;;;;5017261;28;20056;-75
2021/01/20 01:37:49;;;;;;;3.03;1.95;;;0.60;99.90;;;;;;5019795;28;20029;-75
2021/01/20 01:40:38;;;;;;;3.67;1.95;;;0.60;99.90;;;;;;5013949;28;20041;-75
2021/01/20 01:43:20;;;;;;;2.60;1.85;;;0.60;99.90;;;;;;5026099;28;20034;-75
2021/01/20 01:46:05;;;;;;;6.75;2.65;;;0.70;99.90;;;;;;5030772;28;20037;-75
2021/01/20 01:48:32;;;;;;;4.35;2.55;;;0.70;99.90;;;;;;5012460;28;20037;-76
2021/01/20 01:50:58;;;;;;;4.97;2.72;;;0.70;99.90;;;;;;5029887;28;20501;-75
2021/01/20 01:53:24;;;;;;;4.78;2.38;;;0.70;99.90;;;;;;5029507;28;20044;-75
2021/01/20 01:56:02;;;;;;;4.55;2.80;;;0.70;99.90;;;;;;5029700;28;20417;-75
2021/01/20 01:58:49;;;;;;;4.10;2.78;;;0.70;99.90;;;;;;5016660;28;20033;-75
2021/01/20 02:01:21;;;;;;;5.50;2.65;;;0.60;99.90;;;;;;5007559;28;20041;-75
2021/01/20 02:03:53;;;;;;;3.20;2.38;;;0.50;99.90;;;;;;5010529;28;20041;-75
2021/01/20 02:06:23;;;;;;;4.63;3.08;;;0.40;99.90;;;;;;5010389;28;20033;-75
2021/01/20 02:08:58;;;;;;;5.30;2.42;;;0.40;99.90;;;;;;5011944;28;20370;-75
2021/01/20 02:11:51;;;;;;;4.00;2.75;;;0.40;99.90;;;;;;5030565;28;20481;-75
2021/01/20 02:14:54;;;;;;;4.90;3.22;;;0.40;99.90;;;;;;5013123;28;20417;-75
2021/01/20 02:17:38;;;;;;;6.75;4.10;;;0.30;99.90;;;;;;4995682;28;20029;-75
2021/01/20 02:20:13;;;;;;;6.93;4.00;;;0.30;99.90;;;;;;5012789;28;20035;-75
2021/01/20 02:22:42;;;;;;;5.05;3.40;;;0.40;99.90;;;;;;5012631;28;20091;-75
2021/01/20 02:25:33;;;;;;;4.65;3.15;;;0.40;99.90;;;;;;5030878;28;20151;-75
2021/01/20 02:28:18;;;;;;;6.03;3.42;;;0.40;99.90;;;;;;4997277;28;20025;-75
2021/01/20 02:31:03;;;;;;;8.70;4.72;;;0.30;99.90;;;;;;5030548;28;20091;-75
2021/01/20 02:33:35;;;;;;;8.10;4.28;;;0.20;99.90;;;;;;5012770;28;20029;-75
2021/01/20 02:36:22;;;;;;;7.13;4.30;;;0.10;99.90;;;;;;5011332;28;20034;-74
2021/01/20 02:39:11;;;;;;;8.52;4.78;;;0.20;99.90;;;;;;5030258;28;20045;-75
2021/01/20 02:41:37;;;;;;;7.07;3.92;;;0.00;99.90;;;;;;5012348;28;20048;-75
2021/01/20 02:44:22;;;;;;;5.95;3.22;;;0.10;99.90;;;;;;5030476;28;20041;-75
2021/01/20 02:47:10;;;;;;;4.70;3.00;;;0.20;99.90;;;;;;5026808;28;20041;-75
2021/01/20 02:49:46;;;;;;;7.05;3.50;;;0.20;99.90;;;;;;4997664;28;20033;-75
2021/01/20 02:53:02;;;;;;;6.32;3.17;;;0.20;99.90;;;;;;5012456;28;20034;-75
2021/01/20 02:56:06;;;;;;;4.55;3.05;;;0.00;99.90;;;;;;4969075;28;20049;-75
2021/01/20 02:59:02;;;;;;;4.97;3.10;;;0.00;99.90;;;;;;4955220;28;20134;-75
2021/01/20 03:01:33;;;;;;;5.03;3.28;;;0.00;99.90;;;;;;5034537;28;20049;-75
2021/01/20 03:04:00;;;;;;;5.68;3.47;;;-0.20;99.90;;;;;;5034394;28;20069;-75
2021/01/20 03:06:27;;;;;;;8.63;3.72;;;-0.20;99.90;;;;;;5030372;28;20081;-75
2021/01/20 03:08:54;;;;;;;7.07;3.65;;;-0.20;99.90;;;;;;5014689;28;20042;-75
2021/01/20 03:11:19;;;;;;;6.85;3.58;;;-0.20;99.90;;;;;;5014168;28;20064;-75
2021/01/20 03:13:47;;;;;;;4.18;2.63;;;-0.30;99.90;;;;;;5014473;28;20038;-75
2021/01/20 03:16:13;;;;;;;5.88;3.08;;;-0.30;99.90;;;;;;5029198;28;20500;-75
2021/01/20 03:18:38;;;;;;;5.95;3.38;;;-0.30;99.90;;;;;;5033435;28;20037;-75
2021/01/20 03:21:05;;;;;;;5.70;3.38;;;-0.30;99.90;;;;;;5033912;28;20390;-75
2021/01/20 03:23:31;;;;;;;7.45;4.05;;;-0.20;99.90;;;;;;5032714;28;20037;-75
2021/01/20 03:25:57;;;;;;;7.10;3.75;;;-0.20;99.90;;;;;;5032908;28;20099;-74
2021/01/20 03:28:23;;;;;;;8.18;4.03;;;-0.20;99.90;;;;;;5032565;28;20042;-74
2021/01/20 03:30:50;;;;;;;4.75;3.00;;;-0.20;99.90;;;;;;5033298;28;20049;-75
2021/01/20 03:33:16;;;;;;;6.72;3.97;;;-0.20;99.90;;;;;;5028089;28;20370;-75
2021/01/20 03:35:41;;;;;;;8.25;3.75;;;-0.20;99.90;;;;;;5033363;28;20044;-75
2021/01/20 03:38:08;;;;;;;8.63;3.53;;;-0.20;99.90;;;;;;5032174;28;20041;-75
2021/01/20 03:40:34;;;;;;;6.85;3.67;;;-0.20;99.90;;;;;;5033420;28;20048;-75
2021/01/20 03:43:00;;;;;;;6.35;3.42;;;-0.20;99.90;;;;;;5033484;28;20127;-75
2021/01/20 03:45:26;;;;;;;8.40;4.20;;;-0.10;99.90;;;;;;5028576;28;20705;-74
2021/01/20 03:47:51;;;;;;;7.50;3.55;;;-0.10;99.90;;;;;;5032394;28;20069;-75
2021/01/20 03:50:17;;;;;;;11.05;4.32;;;-0.10;99.90;;;;;;5033530;28;20068;-75
2021/01/20 03:52:43;;;;;;;7.18;4.07;;;-0.10;99.90;;;;;;5033222;28;20053;-74
2021/01/20 03:55:09;;;;;;;9.27;3.47;;;-0.10;99.90;;;;;;5032479;28;20092;-75
2021/01/20 03:57:34;;;;;;;8.15;3.90;;;-0.10;99.90;;;;;;5031865;28;20470;-74
2021/01/20 04:00:00;;;;;;;8.82;4.20;;;-0.20;99.90;;;;;;5033917;28;20080;-74
2021/01/20 04:02:26;;;;;;;6.00;3.67;;;-0.20;99.90;;;;;;5033566;28;20050;-74
2021/01/20 04:05:05;;;;;;;8.10;3.95;;;-0.10;99.90;;;;;;5033258;28;20116;-74
2021/01/20 04:07:30;;;;;;;8.15;4.30;;;-0.10;99.90;;;;;;5020048;28;20520;-74
2021/01/20 04:09:56;;;;;;;6.50;3.55;;;0.00;99.90;;;;;;5013063;28;20026;-74
2021/01/20 04:12:22;;;;;;;8.13;4.07;;;0.00;99.90;;;;;;5013347;28;20037;-74
2021/01/20 04:14:47;;;;;;;7.30;3.85;;;0.00;99.90;;;;;;5021623;28;20033;-74
2021/01/20 04:17:13;;;;;;;10.10;4.70;;;-0.10;99.90;;;;;;5031594;28;20041;-75
2021/01/20 04:19:39;;;;;;;8.27;4.32;;;0.00;99.90;;;;;;5032832;28;20088;-74
2021/01/20 04:22:05;;;;;;;7.00;4.00;;;-0.10;99.90;;;;;;5032651;28;20047;-74
2021/01/20 04:24:30;;;;;;;10.68;4.68;;;-0.10;99.90;;;;;;5032814;28;20053;-74
2021/01/20 04:26:56;;;;;;;7.40;3.85;;;-0.10;99.90;;;;;;5013716;28;20111;-74
2021/01/20 04:29:21;;;;;;;10.40;4.13;;;-0.10;99.90;;;;;;5032561;28;20034;-75
2021/01/20 04:31:47;;;;;;;10.15;4.53;;;-0.10;99.90;;;;;;5014947;28;20086;-74
2021/01/20 04:34:13;;;;;;;11.35;4.45;;;0.00;99.90;;;;;;5032767;28;20421;-74
2021/01/20 04:36:38;;;;;;;13.48;5.78;;;0.00;99.90;;;;;;5030949;28;20038;-74
2021/01/20 04:39:04;;;;;;;12.32;5.07;;;0.00;99.90;;;;;;5032417;28;20123;-74
2021/01/20 04:41:33;;;;;;;11.25;4.57;;;0.10;99.90;;;;;;5032483;28;20037;-75
2021/01/20 04:43:58;;;;;;;10.45;5.40;;;0.10;99.90;;;;;;5032430;28;20030;-74
2021/01/20 04:46:24;;;;;;;8.40;3.65;;;0.20;99.90;;;;;;5031332;28;20396;-74
2021/01/20 04:48:54;;;;;;;6.75;2.97;;;0.20;99.90;;;;;;5032257;28;20550;-75
2021/01/20 04:51:23;;;;;;;4.35;2.50;;;0.20;99.90;;;;;;5032073;28;20029;-74
2021/01/20 04:53:53;;;;;;;4.15;2.42;;;0.20;99.90;;;;;;5032269;28;20501;-75
2021/01/20 04:56:20;;;;;;;3.78;2.38;;;0.10;99.90;;;;;;5030737;28;20034;-74
2021/01/20 04:58:45;;;;;;;3.47;2.03;;;0.10;99.90;;;;;;5032321;28;20045;-75
2021/01/20 05:01:12;;;;;;;3.72;1.75;;;0.10;99.90;;;;;;5032253;28;20053;-74
2021/01/20 05:03:42;;;;;;;3.55;1.52;;;0.10;99.90;;;;;;4998027;28;20028;-75
2021/01/20 05:06:11;;;;;;;3.78;1.40;;;0.10;99.90;;;;;;5023690;28;20049;-75
2021/01/20 05:08:37;;;;;;;1.83;1.27;;;0.20;99.90;;;;;;5030781;28;20620;-75
2021/01/20 05:11:03;;;;;;;1.73;1.33;;;0.20;99.90;;;;;;5026080;28;20069;-75
2021/01/20 05:13:30;;;;;;;2.65;1.10;;;0.30;99.90;;;;;;5031634;28;20425;-74
2021/01/20 05:15:57;;;;;;;2.85;1.42;;;0.30;99.90;;;;;;5031642;28;20034;-75
2021/01/20 05:18:23;;;;;;;3.05;1.95;;;0.40;99.90;;;;;;5030371;28;20417;-75
2021/01/20 05:20:49;;;;;;;1.52;1.10;;;0.40;99.90;;;;;;5029117;28;20116;-74
2021/01/20 05:23:15;;;;;;;1.27;1.17;;;0.50;99.90;;;;;;5026443;28;20026;-75
2021/01/20 05:25:48;;;;;;;1.80;1.33;;;0.60;99.90;;;;;;5031132;28;20067;-75
2021/01/20 05:28:40;;;;;;;1.98;1.30;;;0.60;99.90;;;;;;5029618;28;20038;-74
2021/01/20 05:31:06;;;;;;;2.95;0.93;;;0.70;99.90;;;;;;5023933;28;20034;-75
2021/01/20 05:33:39;;;;;;;1.48;1.10;;;0.60;99.90;;;;;;5028474;28;20098;-75
2021/01/20 05:36:16;;;;;;;2.65;1.45;;;0.70;99.90;;;;;;5012520;28;20025;-74
2021/01/20 05:38:42;;;;;;;2.85;1.83;;;0.90;99.90;;;;;;5014233;28;20037;-75
2021/01/20 05:41:18;;;;;;;3.97;2.10;;;0.90;99.90;;;;;;5028522;28;20026;-75
2021/01/20 05:43:44;;;;;;;3.47;1.80;;;0.90;99.90;;;;;;5010492;28;20040;-74
2021/01/20 05:46:10;;;;;;;2.50;1.50;;;0.90;99.90;;;;;;5030386;28;20029;-74
2021/01/20 05:48:47;;;;;;;2.58;1.70;;;0.90;99.90;;;;;;5030544;28;20167;-74
2021/01/20 05:51:14;;;;;;;4.53;2.80;;;0.90;99.90;;;;;;5025992;28;20064;-74
2021/01/20 05:53:53;;;;;;;4.90;2.88;;;1.00;99.90;;;;;;5031149;28;20028;-74
2021/01/20 05:56:27;;;;;;;1.58;1.40;;;0.90;99.90;;;;;;5029582;28;20033;-74
2021/01/20 05:58:53;;;;;;;2.70;2.00;;;0.90;99.90;;;;;;5030059;28;20044;-74
2021/01/20 06:01:19;;;;;;;4.65;2.20;;;0.80;99.90;;;;;;5028230;28;20083;-74
2021/01/20 06:03:45;;;;;;;2.85;2.03;;;0.70;99.90;;;;;;5030242;28;20496;-74
2021/01/20 06:06:12;;;;;;;4.45;3.42;;;0.60;99.90;;;;;;5029044;28;20038;-74
2021/01/20 06:08:38;;;;;;;3.25;2.15;;;0.70;99.90;;;;;;5030872;28;20033;-74
2021/01/20 06:11:05;;;;;;;5.45;3.05;;;0.80;99.90;;;;;;5025254;28;20103;-74
2021/01/20 06:13:31;;;;;;;7.30;4.50;;;0.80;99.90;;;;;;5026075;28;20100;-74
2021/01/20 06:15:59;;;;;;;6.07;3.20;;;0.70;99.90;;;;;;5031009;28;20064;-75
2021/01/20 06:18:35;;;;;;;12.27;6.95;;;0.70;99.90;;;;;;5012256;28;20041;-74
2021/01/20 06:21:01;;;;;;;7.30;4.20;;;0.70;99.90;;;;;;5030404;28;20112;-74
2021/01/20 06:23:28;;;;;;;8.80;5.43;;;0.70;99.90;;;;;;5030267;28;20036;-74
2021/01/20 06:26:01;;;;;;;6.45;4.30;;;0.70;99.90;;;;;;5030545;28;20069;-74
2021/01/20 06:28:27;;;;;;;11.40;7.07;;;0.60;99.90;;;;;;5029934;28;20101;-74
2021/01/20 06:30:54;;;;;;;10.27;5.50;;;0.50;99.90;;;;;;5013063;28;20022;-74
2021/01/20 06:33:21;;;;;;;4.35;3.08;;;0.50;99.90;;;;;;5028938;28;20029;-74
2021/01/20 06:35:50;;;;;;;3.17;2.00;;;0.50;99.90;;;;;;5030317;28;20045;-75
2021/01/20 06:38:28;;;;;;;4.30;2.45;;;0.50;99.90;;;;;;5029699;28;20032;-74
2021/01/20 06:40:55;;;;;;;4.80;2.63;;;0.50;99.90;;;;;;5030592;28;20017;-74
2021/01/20 06:43:44;;;;;;;2.58;1.60;;;0.40;99.90;;;;;;5012243;28;20026;-74
2021/01/20 06:46:25;;;;;;;6.63;3.08;;;0.30;99.90;;;;;;5012211;28;20026;-74
2021/01/20 06:48:54;;;;;;;4.57;3.30;;;0.30;99.90;;;;;;5030375;28;20040;-74
2021/01/20 06:51:24;;;;;;;6.57;3.15;;;0.30;99.90;;;;;;5011613;28;20033;-74
2021/01/20 06:54:01;;;;;;;6.30;3.72;;;0.30;99.90;;;;;;5010874;28;20079;-74
2021/01/20 06:56:31;;;;;;;5.68;3.72;;;0.30;99.90;;;;;;5026101;28;20022;-74
2021/01/20 06:59:12;;;;;;;3.85;2.35;;;0.30;99.90;;;;;;5030320;28;20389;-74
2021/01/20 07:01:38;;;;;;;2.85;1.92;;;0.30;99.90;;;;;;5029496;28;20042;-74
2021/01/20 07:04:04;;;;;;;2.75;1.90;;;0.40;99.90;;;;;;5021351;28;20030;-74
2021/01/20 07:06:36;;;;;;;3.80;2.40;;;0.40;99.90;;;;;;5022213;28;20130;-74
2021/01/20 07:09:13;;;;;;;4.45;2.90;;;0.40;99.90;;;;;;5018250;28;20485;-74
2021/01/20 07:12:06;;;;;;;9.05;4.10;;;0.40;99.90;;;;;;5018361;28;20033;-74
2021/01/20 07:14:32;;;;;;;4.40;2.92;;;0.30;99.90;;;;;;5022264;28;20058;-74
2021/01/20 07:16:58;;;;;;;4.28;2.42;;;0.30;99.90;;;;;;5034358;28;20040;-75
2021/01/20 07:19:26;;;;;;;3.35;1.90;;;0.20;99.90;;;;;;5037010;28;20048;-74
2021/01/20 07:21:54;;;;;;;5.10;2.53;;;0.20;99.90;;;;;;5042102;28;20029;-74
2021/01/20 07:24:21;;;;;;;11.60;5.63;;;0.20;99.90;;;;;;5025617;28;20025;-75
2021/01/20 07:26:47;;;;;;;11.45;5.93;;;0.10;99.90;;;;;;5036521;28;20042;-75
2021/01/20 07:29:17;;;;;;;8.45;4.38;;;0.10;99.90;;;;;;5028584;28;20061;-74
2021/01/20 07:31:48;;;;;;;11.20;5.55;;;0.00;99.90;;;;;;5029903;28;20129;-74
2021/01/20 07:34:14;;;;;;;6.97;4.40;;;0.00;99.90;;;;;;5002274;28;20033;-74
2021/01/20 07:36:40;;;;;;;8.60;4.68;;;-0.10;99.90;;;;;;5019264;28;20080;-74
2021/01/20 07:39:38;;;;;;;9.70;4.72;;;-0.10;99.90;;;;;;5020592;28;20105;-74
2021/01/20 07:42:07;;;;;;;8.65;3.75;;;-0.10;99.90;;;;;;4997839;28;20490;-74
2021/01/20 07:44:35;;;;;;;6.82;3.92;;;-0.20;99.90;;;;;;5025584;28;20203;-74
2021/01/20 07:47:01;;;;;;;7.10;3.58;;;-0.20;99.90;;;;;;5025447;28;20039;-74
2021/01/20 07:49:28;;;;;;;8.45;4.25;;;-0.20;99.90;;;;;;5027315;28;20048;-74
2021/01/20 07:52:08;;;;;;;6.93;3.90;;;-0.30;99.90;;;;;;5034968;28;20078;-74
2021/01/20 07:54:51;;;;;;;8.27;4.15;;;-0.20;99.90;;;;;;5031619;28;20040;-74
2021/01/20 07:57:18;;;;;;;8.32;3.97;;;-0.20;99.90;;;;;;5020716;28;20029;-74
2021/01/20 07:59:45;;;;;;;8.10;4.22;;;-0.30;99.90;;;;;;5034951;28;20038;-74
2021/01/20 08:02:13;;;;;;;9.60;4.85;;;-0.40;99.90;;;;;;5031913;28;20047;-74
2021/01/20 08:04:39;;;;;;;12.65;4.85;;;-0.40;99.90;;;;;;5015105;28;20045;-74
2021/01/20 08:07:06;;;;;;;9.80;5.18;;;-0.40;99.90;;;;;;5033830;28;20477;-74
2021/01/20 08:09:44;;;;;;;9.52;5.85;;;-0.40;99.90;;;;;;5024137;28;20609;-75
2021/01/20 08:12:13;;;;;;;11.40;7.47;;;-0.30;99.90;;;;;;5018299;28;20396;-74
2021/01/20 08:14:42;;;;;;;11.48;6.97;;;-0.30;99.90;;;;;;5024310;28;20367;-74
2021/01/20 08:17:08;;;;;;;11.40;6.47;;;-0.20;99.90;;;;;;5037983;28;20111;-74
2021/01/20 08:19:35;;;;;;;13.55;6.72;;;-0.10;99.90;;;;;;5035962;28;20044;-74
2021/01/20 08:22:04;;;;;;;12.43;8.48;;;-0.10;99.90;;;;;;5037783;28;20038;-74
2021/01/20 08:24:30;;;;;;;16.77;8.70;;;0.00;99.90;;;;;;5042095;28;20025;-74
2021/01/20 08:27:00;;;;;;;14.32;8.10;;;0.00;99.90;;;;;;5031052;28;20396;-74
2021/01/20 08:29:27;;;;;;;11.95;6.03;;;0.10;99.90;;;;;;5043213;28;20459;-74
2021/01/20 08:32:25;;;;;;;11.43;5.90;;;0.10;99.90;;;;;;5031303;28;20420;-74
2021/01/20 08:34:53;;;;;;;11.50;5.97;;;0.10;99.90;;;;;;4989790;28;20037;-74
2021/01/20 08:37:21;;;;;;;9.43;5.20;;;0.10;99.90;;;;;;5035330;28;20106;-75
2021/01/20 08:39:55;;;;;;;8.80;4.45;;;0.10;99.90;;;;;;5032515;28;20033;-75
2021/01/20 08:42:26;;;;;;;9.95;5.20;;;0.00;99.90;;;;;;5032518;28;20091;-74
2021/01/20 08:45:10;;;;;;;14.02;6.70;;;0.00;99.90;;;;;;5032224;28;20539;-74
2021/01/20 08:47:52;;;;;;;13.82;6.38;;;0.00;99.90;;;;;;5031018;28;20068;-74
2021/01/20 08:50:20;;;;;;;11.23;6.13;;;0.10;99.90;;;;;;5031600;28;20547;-74
2021/01/20 08:52:49;;;;;;;13.95;6.97;;;0.20;99.90;;;;;;5030086;28;20029;-75
2021/01/20 08:55:34;;;;;;;10.07;5.53;;;0.30;99.90;;;;;;5029381;28;20033;-74
2021/01/20 08:58:25;;;;;;;8.35;5.30;;;0.40;99.90;;;;;;5024222;28;20146;-74
2021/01/20 09:00:55;;;;;;;10.55;5.10;;;0.50;99.90;;;;;;5021357;28;20079;-75
2021/01/20 09:03:34;;;;;;;14.32;7.55;;;0.60;99.90;;;;;;4993800;28;20087;-74
2021/01/20 09:06:03;;;;;;;9.20;5.55;;;0.70;99.90;;;;;;4991599;28;20061;-74
2021/01/20 09:08:30;;;;;;;9.38;4.88;;;0.90;99.90;;;;;;5007982;28;20052;-74
2021/01/20 09:11:00;;;;;;;9.95;6.35;;;0.90;99.90;;;;;;5027696;28;20385;-73
2021/01/20 09:13:26;;;;;;;16.20;8.45;;;1.00;99.90;;;;;;5029205;28;20091;-74
2021/01/20 09:15:54;;;;;;;12.77;6.78;;;1.10;99.90;;;;;;5040183;28;20459;-74
2021/01/20 09:18:22;;;;;;;11.35;5.47;;;1.10;99.90;;;;;;5044950;28;20032;-75
2021/01/20 09:20:48;;;;;;;9.35;5.63;;;1.20;99.90;;;;;;5043984;28;20078;-74
2021/01/20 09:23:15;;;;;;;9.02;5.97;;;1.20;99.90;;;;;;5014613;28;20170;-75
2021/01/20 09:25:41;;;;;;;14.40;6.60;;;1.20;99.90;;;;;;5007176;28;20049;-74
2021/01/20 09:28:07;;;;;;;16.42;8.27;;;1.30;99.90;;;;;;4991194;28;20053;-74
2021/01/20 09:30:34;;;;;;;18.52;8.73;;;1.30;99.90;;;;;;5021734;28;20091;-75
2021/01/20 09:33:00;;;;;;;23.55;10.25;;;1.40;99.90;;;;;;5018546;28;20049;-74
2021/01/20 09:35:26;;;;;;;12.07;6.75;;;1.50;99.90;;;;;;5022217;28;20111;-75
2021/01/20 09:37:55;;;;;;;10.85;5.70;;;1.60;99.90;;;;;;5022858;28;20245;-75
2021/01/20 09:40:23;;;;;;;10.27;5.72;;;1.60;99.90;;;;;;4996762;28;21574;-75
2021/01/20 09:42:51;;;;;;;16.60;10.80;;;1.70;99.90;;;;;;5013521;28;20059;-74
2021/01/20 09:45:18;;;;;;;21.73;11.35;;;1.60;99.90;;;;;;5024567;28;20040;-75
2021/01/20 09:47:46;;;;;;;23.05;13.35;;;1.60;99.90;;;;;;5026264;28;20021;-74
2021/01/20 09:50:15;;;;;;;23.77;13.00;;;1.70;99.90;;;;;;5023982;28;20100;-75
2021/01/20 09:52:43;;;;;;;15.75;8.77;;;1.80;99.90;;;;;;5033143;28;20045;-75
2021/01/20 09:55:09;;;;;;;8.95;5.47;;;2.00;99.90;;;;;;5030278;28;20108;-73
2021/01/20 09:57:35;;;;;;;9.35;5.07;;;2.10;99.90;;;;;;4998026;28;20865;-75
2021/01/20 10:00:04;;;;;;;7.43;4.88;;;2.20;99.90;;;;;;5008296;28;20047;-75
2021/01/20 10:02:37;;;;;;;9.57;5.15;;;2.20;99.90;;;;;;5014953;28;20144;-76
2021/01/20 10:05:07;;;;;;;10.20;5.53;;;2.30;99.90;;;;;;5010148;28;20037;-76
2021/01/20 10:07:33;;;;;;;8.43;4.57;;;2.40;99.90;;;;;;4999505;28;20045;-75
2021/01/20 10:09:59;;;;;;;9.77;5.30;;;2.60;99.90;;;;;;5024447;28;20032;-75
2021/01/20 10:12:25;;;;;;;6.63;3.88;;;2.70;99.90;;;;;;5026122;28;20029;-75
2021/01/20 10:14:51;;;;;;;5.65;3.10;;;2.90;99.90;;;;;;5025859;28;20095;-75
2021/01/20 10:17:16;;;;;;;4.43;3.03;;;3.00;99.90;;;;;;5024758;28;20034;-75
2021/01/20 10:19:42;;;;;;;6.53;3.67;;;3.10;99.90;;;;;;5027024;28;20082;-75
2021/01/20 10:22:08;;;;;;;5.22;3.20;;;3.30;99.90;;;;;;5026285;28;20087;-75
2021/01/20 10:24:34;;;;;;;6.45;3.65;;;3.30;99.90;;;;;;5025675;28;20409;-76
2021/01/20 10:27:00;;;;;;;7.60;4.03;;;3.30;99.90;;;;;;5024356;28;20029;-75
2021/01/20 10:29:26;;;;;;;11.20;5.10;;;3.40;99.90;;;;;;5025867;28;20033;-75
2021/01/20 10:31:53;;;;;;;17.95;7.00;;;3.40;99.90;;;;;;5026615;28;20532;-75
2021/01/20 10:34:19;;;;;;;27.67;9.65;;;3.50;99.90;;;;;;5026907;28;20037;-75
2021/01/20 10:36:44;;;;;;;11.05;5.97;;;3.50;99.90;;;;;;5014670;28;20025;-76
2021/01/20 10:39:10;;;;;;;6.82;3.60;;;3.60;99.90;;;;;;5022366;28;20036;-77
2021/01/20 10:41:37;;;;;;;6.22;4.13;;;3.60;99.90;;;;;;5031255;28;20028;-76
2021/01/20 10:44:04;;;;;;;6.47;3.72;;;3.70;99.90;;;;;;5025211;28;20025;-77
2021/01/20 10:46:30;;;;;;;7.32;4.07;;;3.70;99.90;;;;;;5025477;28;20104;-77
2021/01/20 10:49:01;;;;;;;36.97;12.20;;;3.70;99.90;;;;;;5008905;28;20592;-76
2021/01/20 10:51:28;;;;;;;30.20;11.02;;;3.70;99.90;;;;;;5008486;28;20033;-77
2021/01/20 10:53:54;;;;;;;14.85;5.72;;;3.80;99.90;;;;;;5024583;28;20121;-77
2021/01/20 10:56:20;;;;;;;8.15;4.07;;;3.80;99.90;;;;;;5022443;28;20112;-77
2021/01/20 10:58:46;;;;;;;5.47;3.70;;;3.80;99.90;;;;;;5027380;28;20537;-77
2021/01/20 11:01:11;;;;;;;5.93;3.58;;;3.80;99.90;;;;;;5029123;28;20404;-77
2021/01/20 11:03:40;;;;;;;5.70;3.55;;;3.80;99.90;;;;;;5039772;28;20501;-78
2021/01/20 11:06:09;;;;;;;6.75;3.20;;;3.80;99.90;;;;;;5019774;28;20135;-78
2021/01/20 11:08:35;;;;;;;4.32;1.65;;;3.80;99.90;;;;;;4991766;28;20126;-77
2021/01/20 11:11:01;;;;;;;1.23;0.80;;;3.80;99.90;;;;;;5032926;28;20053;-78
2021/01/20 11:13:27;;;;;;;1.00;0.85;;;3.90;99.90;;;;;;5015951;28;20436;-77
2021/01/20 11:15:53;;;;;;;0.77;0.70;;;4.00;99.90;;;;;;5027945;28;20041;-77
2021/01/20 11:18:19;;;;;;;1.45;0.77;;;4.10;99.90;;;;;;5030716;28;20040;-78
2021/01/20 11:20:46;;;;;;;2.03;0.80;;;4.30;99.90;;;;;;5044827;28;20527;-78
2021/01/20 11:23:13;;;;;;;2.25;1.00;;;4.40;99.90;;;;;;5041682;28;20441;-77
2021/01/20 11:25:47;;;;;;;1.58;0.93;;;4.60;99.90;;;;;;5021608;28;20033;-78
2021/01/20 11:28:14;;;;;;;0.82;0.80;;;4.60;99.90;;;;;;5021233;28;20362;-79
2021/01/20 11:30:41;;;;;;;1.75;0.95;;;4.70;99.90;;;;;;5037162;28;20039;-78
2021/01/20 11:33:08;;;;;;;1.30;1.00;;;4.70;99.90;;;;;;5032930;28;20022;-78
2021/01/20 11:35:34;;;;;;;1.33;1.02;;;4.70;99.90;;;;;;5017685;28;20386;-78
2021/01/20 11:38:00;;;;;;;2.33;1.45;;;4.70;99.90;;;;;;5021039;28;20052;-78
2021/01/20 11:40:27;;;;;;;0.85;0.80;;;4.70;99.90;;;;;;5007120;28;20485;-78
2021/01/20 11:42:57;;;;;;;2.05;1.00;;;4.70;99.90;;;;;;5047748;28;20668;-78
2021/01/20 11:45:30;;;;;;;1.17;0.85;;;4.70;99.90;;;;;;5028139;28;20032;-78
2021/01/20 11:47:56;;;;;;;1.92;1.10;;;4.80;99.90;;;;;;5016889;28;20030;-78
2021/01/20 11:50:23;;;;;;;1.92;1.00;;;4.80;99.90;;;;;;5043356;28;20017;-78
2021/01/20 11:52:51;;;;;;;1.80;1.13;;;4.90;99.90;;;;;;5040944;28;20138;-79
2021/01/20 11:55:17;;;;;;;5.03;2.33;;;5.00;99.90;;;;;;5001814;28;20022;-78
2021/01/20 11:57:43;;;;;;;12.15;4.28;;;5.00;99.90;;;;;;5030834;28;20440;-78
2021/01/20 12:00:10;;;;;;;10.15;5.22;;;5.10;99.90;;;;;;4999536;28;20116;-77
2021/01/20 12:02:39;;;;;;;20.05;8.68;;;5.10;99.90;;;;;;4999033;28;20413;-77
2021/01/20 12:05:11;;;;;;;25.63;11.38;;;5.00;99.90;;;;;;5014236;28;20593;-77
2021/01/20 12:07:38;;;;;;;8.35;4.47;;;4.90;99.90;;;;;;5014814;28;20539;-78
2021/01/20 12:10:06;;;;;;;8.77;5.22;;;4.80;99.90;;;;;;5015019;28;20108;-77
2021/01/20 12:12:32;;;;;;;9.23;4.88;;;4.70;99.90;;;;;;5012624;28;20115;-77
2021/01/20 12:14:58;;;;;;;8.80;4.95;;;4.60;99.90;;;;;;5009977;28;20044;-77
2021/01/20 12:17:24;;;;;;;7.45;4.15;;;4.60;99.90;;;;;;5027766;28;20029;-77
2021/01/20 12:19:50;;;;;;;20.05;8.18;;;4.50;99.90;;;;;;5010948;28;20065;-77
2021/01/20 12:22:16;;;;;;;12.80;6.50;;;4.40;99.90;;;;;;5012213;28;20034;-78
2021/01/20 12:24:41;;;;;;;23.13;9.05;;;4.40;99.90;;;;;;5029597;28;20515;-78
2021/01/20 12:27:07;;;;;;;18.35;6.75;;;4.40;99.90;;;;;;5026884;28;20029;-77
2021/01/20 12:29:33;;;;;;;26.63;10.40;;;4.40;99.90;;;;;;5010841;28;20445;-77
2021/01/20 12:31:58;;;;;;;18.65;7.90;;;4.40;99.90;;;;;;5027315;28;20378;-77
2021/01/20 12:34:24;;;;;;;9.30;5.97;;;4.30;99.90;;;;;;5009512;28;20041;-77
2021/01/20 12:36:50;;;;;;;9.52;5.93;;;4.40;99.90;;;;;;5009453;28;20152;-78
2021/01/20 12:39:16;;;;;;;8.23;4.07;;;4.30;99.90;;;;;;5011946;28;20056;-77
2021/01/20 12:41:42;;;;;;;5.93;3.55;;;4.30;99.90;;;;;;5011031;28;20104;-76
2021/01/20 12:44:08;;;;;;;6.55;3.92;;;4.30;99.90;;;;;;5010821;28;20033;-78
2021/01/20 12:46:34;;;;;;;9.45;3.65;;;4.30;99.90;;;;;;5010203;28;20115;-77
2021/01/20 12:49:01;;;;;;;7.25;3.75;;;4.30;99.90;;;;;;5010849;28;20120;-77
2021/01/20 12:51:26;;;;;;;6.32;3.83;;;4.20;99.90;;;;;;5010851;28;20036;-78
2021/01/20 12:53:52;;;;;;;10.75;4.25;;;4.20;99.90;;;;;;5027280;28;20018;-77
2021/01/20 12:56:18;;;;;;;8.75;5.00;;;4.30;99.90;;;;;;5024201;28;20159;-77
2021/01/20 12:58:44;;;;;;;7.45;5.32;;;4.30;99.90;;;;;;5027593;28;20034;-76
2021/01/20 13:01:09;;;;;;;7.05;4.90;;;4.30;99.90;;;;;;5027461;28;20167;-76
2021/01/20 13:03:35;;;;;;;10.00;4.53;;;4.30;99.90;;;;;;5012396;28;20118;-77
2021/01/20 13:06:01;;;;;;;7.43;4.30;;;4.30;99.90;;;;;;5010213;28;20044;-77